Time;durP1;ratioP1;P1;durP2;ratioP2;P2;SDS_P1;SDS_P2;PMS_P1;PMS_P2;Temp;Humidity;BMP_temperature;BMP_pressure;BME280_temperature;BME280_humidity;BME280_pressure;Samples;Min_cycle;Max_cycle;Signal;HPM_P1;HPM_P2
2024/03/27 00:01:56;;;;;;;;;0.00;0.00;;;;;;;;5095198;27;45398;-57
2024/03/27 00:04:21;;;;;;;;;3.67;1.33;;;;;;;;5095016;27;45262;-57
2024/03/27 00:06:46;;;;;;;;;1.00;1.00;;;;;;;;5091662;27;46028;-57
2024/03/27 00:09:13;;;;;;;;;1.33;1.00;;;;;;;;5094945;27;45388;-57
2024/03/27 00:11:38;;;;;;;;;1.33;1.33;;;;;;;;5094910;27;45765;-57
2024/03/27 00:14:03;;;;;;;;;2.33;1.33;;;;;;;;5094821;27;45350;-57
2024/03/27 00:16:28;;;;;;;;;1.00;1.00;;;;;;;;5095618;27;45275;-57
2024/03/27 00:18:54;;;;;;;;;4.00;1.33;;;;;;;;5076923;27;45337;-57
2024/03/27 00:21:19;;;;;;;;;1.00;1.00;;;;;;;;5094743;27;45357;-57
2024/03/27 00:23:44;;;;;;;;;2.00;2.00;;;;;;;;5099522;27;45465;-57
2024/03/27 00:26:10;;;;;;;;;1.00;1.00;;;;;;;;5095591;27;45275;-57
2024/03/27 00:28:35;;;;;;;;;1.00;1.00;;;;;;;;5100065;27;45458;-57
2024/03/27 00:31:01;;;;;;;;;2.00;1.00;;;;;;;;5096757;27;46348;-54
2024/03/27 00:33:26;;;;;;;;;1.67;1.67;;;;;;;;5092965;27;45314;-58
2024/03/27 00:35:54;;;;;;;;;2.00;2.00;;;;;;;;5075638;27;45657;-59
2024/03/27 00:38:20;;;;;;;;;5.00;2.67;;;;;;;;5091480;27;45367;-59
2024/03/27 00:40:46;;;;;;;;;1.00;1.00;;;;;;;;5096692;27;45270;-59
2024/03/27 00:43:11;;;;;;;;;4.00;3.00;;;;;;;;5100368;27;46290;-59
2024/03/27 00:45:36;;;;;;;;;2.33;2.00;;;;;;;;5102841;27;45459;-58
2024/03/27 00:48:02;;;;;;;;;4.00;3.00;;;;;;;;5101937;27;45369;-59
2024/03/27 00:50:27;;;;;;;;;3.33;2.00;;;;;;;;5093452;27;46770;-59
2024/03/27 00:52:53;;;;;;;;;4.00;3.00;;;;;;;;5100547;27;45513;-59
2024/03/27 00:55:18;;;;;;;;;3.00;3.00;;;;;;;;5101987;27;45413;-59
2024/03/27 00:57:44;;;;;;;;;4.00;4.00;;;;;;;;5097572;27;45284;-59
2024/03/27 01:00:10;;;;;;;;;3.67;3.00;;;;;;;;5101233;27;45619;-59
2024/03/27 01:02:36;;;;;;;;;2.33;2.33;;;;;;;;5102647;27;45416;-58
2024/03/27 01:05:01;;;;;;;;;3.00;3.00;;;;;;;;5095423;27;45370;-59
2024/03/27 01:07:26;;;;;;;;;4.00;4.00;;;;;;;;5097833;27;45565;-59
2024/03/27 01:09:52;;;;;;;;;3.33;3.33;;;;;;;;5096301;27;46098;-59
2024/03/27 01:12:17;;;;;;;;;2.33;2.33;;;;;;;;5099498;27;45240;-59
2024/03/27 01:14:43;;;;;;;;;5.00;5.00;;;;;;;;5102493;27;45370;-58
2024/03/27 01:17:08;;;;;;;;;8.33;4.00;;;;;;;;5097004;27;45252;-59
2024/03/27 01:19:33;;;;;;;;;3.33;3.33;;;;;;;;5101916;27;46101;-59
2024/03/27 01:21:59;;;;;;;;;3.33;3.33;;;;;;;;5097327;27;45338;-59
2024/03/27 01:24:24;;;;;;;;;5.67;5.67;;;;;;;;5094950;27;45335;-59
2024/03/27 01:26:49;;;;;;;;;5.00;5.00;;;;;;;;5077894;27;45259;-59
2024/03/27 01:29:14;;;;;;;;;6.33;4.00;;;;;;;;5095356;27;46557;-58
2024/03/27 01:31:39;;;;;;;;;6.67;6.67;;;;;;;;5097995;27;45152;-58
2024/03/27 01:34:04;;;;;;;;;10.33;5.00;;;;;;;;5080528;27;45310;-59
2024/03/27 01:36:30;;;;;;;;;9.00;7.00;;;;;;;;5097787;27;45367;-59
2024/03/27 01:38:55;;;;;;;;;11.33;7.00;;;;;;;;5093313;27;45632;-59
2024/03/27 01:41:20;;;;;;;;;4.67;4.67;;;;;;;;5091724;27;45288;-59
2024/03/27 01:43:45;;;;;;;;;8.33;7.33;;;;;;;;5101128;27;45282;-59
2024/03/27 01:46:11;;;;;;;;;4.00;4.00;;;;;;;;5097463;27;45220;-59
2024/03/27 01:48:36;;;;;;;;;5.00;5.00;;;;;;;;5100023;27;46716;-59
2024/03/27 01:51:03;;;;;;;;;5.33;4.00;;;;;;;;5097372;27;45533;-59
2024/03/27 01:53:29;;;;;;;;;4.33;4.33;;;;;;;;5097757;27;45307;-59
2024/03/27 01:55:55;;;;;;;;;10.67;8.33;;;;;;;;5097810;27;45325;-58
2024/03/27 01:58:20;;;;;;;;;5.67;5.67;;;;;;;;5096870;27;46224;-58
2024/03/27 02:00:45;;;;;;;;;8.33;6.33;;;;;;;;5081054;27;45327;-58
2024/03/27 02:03:11;;;;;;;;;7.00;5.67;;;;;;;;5094910;27;45510;-58
2024/03/27 02:05:37;;;;;;;;;4.00;3.00;;;;;;;;5091485;27;45271;-59
2024/03/27 02:08:02;;;;;;;;;6.00;6.00;;;;;;;;5095346;27;45369;-58
2024/03/27 02:10:27;;;;;;;;;6.67;6.00;;;;;;;;5100340;27;45509;-59
2024/03/27 02:12:52;;;;;;;;;9.00;7.00;;;;;;;;5101548;27;45339;-59
2024/03/27 02:15:18;;;;;;;;;6.00;4.67;;;;;;;;5096599;27;45306;-59
2024/03/27 02:17:43;;;;;;;;;7.00;5.00;;;;;;;;5097595;27;45580;-59
2024/03/27 02:20:09;;;;;;;;;7.00;7.00;;;;;;;;5100509;27;45291;-58
2024/03/27 02:22:34;;;;;;;;;5.00;5.00;;;;;;;;5100310;27;45164;-59
2024/03/27 02:25:19;;;;;;;;;9.33;7.67;;;;;;;;5097601;27;45555;-59
2024/03/27 02:27:44;;;;;;;;;10.33;8.00;;;;;;;;5089924;27;46182;-58
2024/03/27 02:30:09;;;;;;;;;8.00;7.33;;;;;;;;5094631;27;45472;-58
2024/03/27 02:32:35;;;;;;;;;7.33;7.00;;;;;;;;5082060;27;45294;-59
2024/03/27 02:35:00;;;;;;;;;7.33;6.00;;;;;;;;5095159;27;47230;-59
2024/03/27 02:37:25;;;;;;;;;3.00;3.00;;;;;;;;5091618;27;45330;-59
2024/03/27 02:39:51;;;;;;;;;5.00;5.00;;;;;;;;5096954;27;45397;-58
2024/03/27 02:42:16;;;;;;;;;6.67;6.67;;;;;;;;5097192;27;45490;-58
2024/03/27 02:44:41;;;;;;;;;5.67;5.67;;;;;;;;5099646;27;45342;-58
2024/03/27 02:47:06;;;;;;;;;7.33;7.00;;;;;;;;5094631;27;46477;-59
2024/03/27 02:49:32;;;;;;;;;8.33;5.00;;;;;;;;5094621;27;46422;-59
2024/03/27 02:51:57;;;;;;;;;4.33;4.33;;;;;;;;5098138;27;45240;-58
2024/03/27 02:54:22;;;;;;;;;7.00;7.00;;;;;;;;5088255;27;45523;-58
2024/03/27 02:56:48;;;;;;;;;7.33;6.00;;;;;;;;5089970;27;45333;-58
2024/03/27 02:59:13;;;;;;;;;8.33;5.67;;;;;;;;5096980;27;45382;-59
2024/03/27 03:01:38;;;;;;;;;7.00;7.00;;;;;;;;5098379;27;45641;-59
2024/03/27 03:04:03;;;;;;;;;6.33;6.33;;;;;;;;5093614;27;45504;-58
2024/03/27 03:06:28;;;;;;;;;6.33;5.33;;;;;;;;5097664;27;45415;-58
2024/03/27 03:08:54;;;;;;;;;6.00;6.00;;;;;;;;5097345;27;45257;-58
2024/03/27 03:11:19;;;;;;;;;9.33;7.00;;;;;;;;5093010;27;45331;-58
2024/03/27 03:13:44;;;;;;;;;6.67;6.67;;;;;;;;5092482;27;45459;-59
2024/03/27 03:16:09;;;;;;;;;6.00;6.00;;;;;;;;5076844;27;45626;-59
2024/03/27 03:18:35;;;;;;;;;7.00;6.00;;;;;;;;5097757;27;45414;-59
2024/03/27 03:21:00;;;;;;;;;9.33;6.33;;;;;;;;5094750;27;45632;-59
2024/03/27 03:23:26;;;;;;;;;6.00;5.00;;;;;;;;5092463;27;45301;-58
2024/03/27 03:25:51;;;;;;;;;5.00;5.00;;;;;;;;5098494;27;46297;-58
2024/03/27 03:28:16;;;;;;;;;5.00;5.00;;;;;;;;5095451;27;45322;-59
2024/03/27 03:30:41;;;;;;;;;6.33;6.33;;;;;;;;5098033;27;45403;-59
2024/03/27 03:33:06;;;;;;;;;6.00;6.00;;;;;;;;5099942;27;45326;-58
2024/03/27 03:35:31;;;;;;;;;6.00;6.00;;;;;;;;5099367;27;46289;-59
2024/03/27 03:37:57;;;;;;;;;6.00;6.00;;;;;;;;5088006;27;45282;-59
2024/03/27 03:40:22;;;;;;;;;7.33;6.00;;;;;;;;5099827;27;45298;-59
2024/03/27 03:42:47;;;;;;;;;7.00;6.00;;;;;;;;5093586;27;45392;-58
2024/03/27 03:45:12;;;;;;;;;10.33;7.00;;;;;;;;5075263;27;46481;-59
2024/03/27 03:47:37;;;;;;;;;4.33;4.00;;;;;;;;5091772;27;45254;-58
2024/03/27 03:50:03;;;;;;;;;7.33;6.00;;;;;;;;5099813;27;45244;-58
2024/03/27 03:52:28;;;;;;;;;8.67;6.67;;;;;;;;5100031;27;45283;-58
2024/03/27 03:54:53;;;;;;;;;6.00;6.00;;;;;;;;5093704;27;45528;-59
2024/03/27 03:57:18;;;;;;;;;6.67;5.00;;;;;;;;5096404;27;45256;-58
2024/03/27 03:59:44;;;;;;;;;7.00;7.00;;;;;;;;5093924;27;45529;-58
2024/03/27 04:02:10;;;;;;;;;6.00;6.00;;;;;;;;5085845;27;45238;-59
2024/03/27 04:04:35;;;;;;;;;4.67;4.33;;;;;;;;5099117;27;45318;-59
2024/03/27 04:07:00;;;;;;;;;9.67;6.67;;;;;;;;5088656;27;45352;-59
2024/03/27 04:09:26;;;;;;;;;4.67;4.33;;;;;;;;5099211;27;45501;-59
2024/03/27 04:11:52;;;;;;;;;7.00;5.00;;;;;;;;5093009;27;45375;-59
2024/03/27 04:14:18;;;;;;;;;6.00;6.00;;;;;;;;5093015;27;45925;-59
2024/03/27 04:16:43;;;;;;;;;6.67;5.00;;;;;;;;5092385;27;45453;-59
2024/03/27 04:19:08;;;;;;;;;6.00;5.00;;;;;;;;5099259;27;45296;-59
2024/03/27 04:21:33;;;;;;;;;11.00;7.33;;;;;;;;5087555;27;45723;-60
2024/03/27 04:23:58;;;;;;;;;6.00;5.33;;;;;;;;5093537;27;45330;-59
2024/03/27 04:26:23;;;;;;;;;5.67;5.67;;;;;;;;5089724;27;45447;-60
2024/03/27 04:28:49;;;;;;;;;7.00;7.00;;;;;;;;5097859;27;45277;-59
2024/03/27 04:31:14;;;;;;;;;6.67;5.00;;;;;;;;5070275;28;45370;-59
2024/03/27 04:33:39;;;;;;;;;6.00;6.00;;;;;;;;5098255;27;46438;-59
2024/03/27 04:36:05;;;;;;;;;7.00;6.00;;;;;;;;5097834;27;45449;-59
2024/03/27 04:38:30;;;;;;;;;8.00;6.00;;;;;;;;5097801;27;45373;-59
2024/03/27 04:40:56;;;;;;;;;5.33;5.33;;;;;;;;5089561;27;45342;-59
2024/03/27 04:43:21;;;;;;;;;5.33;4.33;;;;;;;;5093231;27;45519;-59
2024/03/27 04:45:46;;;;;;;;;6.67;6.67;;;;;;;;5093405;27;45726;-59
2024/03/27 04:48:11;;;;;;;;;4.67;4.67;;;;;;;;5098888;27;45501;-59
2024/03/27 04:50:36;;;;;;;;;8.33;5.00;;;;;;;;5090861;27;45559;-59
2024/03/27 04:53:02;;;;;;;;;7.33;7.00;;;;;;;;5091366;27;45591;-59
2024/03/27 04:55:27;;;;;;;;;7.00;6.00;;;;;;;;5093453;27;45449;-59
2024/03/27 04:57:52;;;;;;;;;6.00;6.00;;;;;;;;5098426;27;45315;-59
2024/03/27 05:00:18;;;;;;;;;4.00;4.00;;;;;;;;5090526;27;45365;-59
2024/03/27 05:02:43;;;;;;;;;6.00;5.00;;;;;;;;5092976;27;45646;-59
2024/03/27 05:05:08;;;;;;;;;9.67;7.00;;;;;;;;5090573;27;45359;-59
2024/03/27 05:07:33;;;;;;;;;5.67;5.00;;;;;;;;5080173;27;45224;-59
2024/03/27 05:09:59;;;;;;;;;5.00;5.00;;;;;;;;5095380;27;45391;-59
2024/03/27 05:12:24;;;;;;;;;5.00;5.00;;;;;;;;5074036;27;47148;-59
2024/03/27 05:14:49;;;;;;;;;5.00;5.00;;;;;;;;5096895;27;45203;-59
2024/03/27 05:17:14;;;;;;;;;4.33;4.00;;;;;;;;5100928;27;46809;-59
2024/03/27 05:19:39;;;;;;;;;5.00;5.00;;;;;;;;5102442;27;45194;-59
2024/03/27 05:22:05;;;;;;;;;5.00;5.00;;;;;;;;5098293;27;46275;-59
2024/03/27 05:24:30;;;;;;;;;5.67;4.67;;;;;;;;5099709;27;45318;-59
2024/03/27 05:26:55;;;;;;;;;5.00;5.00;;;;;;;;5100556;27;45427;-59
2024/03/27 05:29:20;;;;;;;;;4.67;4.67;;;;;;;;5101458;27;45588;-59
2024/03/27 05:31:52;;;;;;;;;6.67;5.00;;;;;;;;5102178;27;46348;-59
2024/03/27 05:34:17;;;;;;;;;4.33;4.33;;;;;;;;5101288;27;46524;-59
2024/03/27 05:36:43;;;;;;;;;5.33;5.00;;;;;;;;5101785;27;45446;-59
2024/03/27 05:39:11;;;;;;;;;3.67;3.67;;;;;;;;5101520;27;45318;-59
2024/03/27 05:41:37;;;;;;;;;5.67;4.00;;;;;;;;5096056;27;45226;-59
2024/03/27 05:44:02;;;;;;;;;3.00;3.00;;;;;;;;5098217;27;45413;-58
2024/03/27 05:46:27;;;;;;;;;4.67;4.00;;;;;;;;5076542;27;45385;-59
2024/03/27 05:48:55;;;;;;;;;5.00;5.00;;;;;;;;5096990;27;45347;-59
2024/03/27 05:51:20;;;;;;;;;5.00;5.00;;;;;;;;5096448;27;46298;-59
2024/03/27 05:53:45;;;;;;;;;3.00;3.00;;;;;;;;5095641;27;45216;-59
2024/03/27 05:56:10;;;;;;;;;8.67;4.00;;;;;;;;5090389;27;45695;-59
2024/03/27 05:58:36;;;;;;;;;5.67;5.00;;;;;;;;5098230;27;45351;-59
2024/03/27 06:01:01;;;;;;;;;6.00;4.67;;;;;;;;5083335;27;47515;-59
2024/03/27 06:03:26;;;;;;;;;4.00;4.00;;;;;;;;5101091;27;45717;-59
2024/03/27 06:05:51;;;;;;;;;6.00;6.00;;;;;;;;5100227;27;45474;-59
2024/03/27 06:08:17;;;;;;;;;3.00;2.67;;;;;;;;5091711;27;45725;-59
2024/03/27 06:10:42;;;;;;;;;3.33;3.33;;;;;;;;5100440;27;45452;-59
2024/03/27 06:13:09;;;;;;;;;6.00;4.00;;;;;;;;5097917;27;45310;-59
2024/03/27 06:15:34;;;;;;;;;3.33;3.00;;;;;;;;5095451;27;45516;-59
2024/03/27 06:18:02;;;;;;;;;4.00;4.00;;;;;;;;5098403;27;45579;-59
2024/03/27 06:20:28;;;;;;;;;3.00;3.00;;;;;;;;5098205;27;45515;-59
2024/03/27 06:22:54;;;;;;;;;4.67;4.67;;;;;;;;5095084;27;45374;-59
2024/03/27 06:25:19;;;;;;;;;3.00;3.00;;;;;;;;5095838;27;45745;-59
2024/03/27 06:27:44;;;;;;;;;4.00;4.00;;;;;;;;5097321;27;45218;-59
2024/03/27 06:30:10;;;;;;;;;4.00;4.00;;;;;;;;5097206;27;45572;-59
2024/03/27 06:32:36;;;;;;;;;3.67;2.67;;;;;;;;5092754;27;45310;-59
2024/03/27 06:35:01;;;;;;;;;4.33;4.33;;;;;;;;5097616;27;45515;-59
2024/03/27 06:37:26;;;;;;;;;4.33;4.00;;;;;;;;5096207;27;45759;-59
2024/03/27 06:39:52;;;;;;;;;5.33;4.00;;;;;;;;5096795;27;45578;-59
2024/03/27 06:42:17;;;;;;;;;4.00;4.00;;;;;;;;5098040;27;45337;-59
2024/03/27 06:44:44;;;;;;;;;5.00;4.00;;;;;;;;5100680;27;45645;-58
2024/03/27 06:47:09;;;;;;;;;3.33;3.33;;;;;;;;5099925;27;45390;-57
2024/03/27 06:49:34;;;;;;;;;5.00;3.67;;;;;;;;5096016;27;45523;-58
2024/03/27 06:51:59;;;;;;;;;5.33;4.00;;;;;;;;5080718;27;45594;-57
2024/03/27 06:54:25;;;;;;;;;4.00;4.00;;;;;;;;5093617;27;45474;-57
2024/03/27 06:56:50;;;;;;;;;4.67;3.33;;;;;;;;5089960;27;45297;-57
2024/03/27 06:59:15;;;;;;;;;4.33;3.00;;;;;;;;5087251;27;45434;-57
2024/03/27 07:01:40;;;;;;;;;3.00;3.00;;;;;;;;5087226;27;45232;-60
2024/03/27 07:04:06;;;;;;;;;6.00;6.00;;;;;;;;5080208;27;45257;-57
2024/03/27 07:06:31;;;;;;;;;3.00;3.00;;;;;;;;5090317;27;45228;-57
2024/03/27 07:08:56;;;;;;;;;3.00;3.00;;;;;;;;5087615;27;45426;-57
2024/03/27 07:11:21;;;;;;;;;4.00;2.33;;;;;;;;5095996;27;45279;-57
2024/03/27 07:13:46;;;;;;;;;5.33;3.67;;;;;;;;5099787;27;45326;-57
2024/03/27 07:16:11;;;;;;;;;3.00;3.00;;;;;;;;5090210;27;45271;-69
2024/03/27 07:18:37;;;;;;;;;6.00;3.00;;;;;;;;5084818;27;46648;-70
2024/03/27 07:21:02;;;;;;;;;3.33;3.00;;;;;;;;5090330;27;45384;-69
2024/03/27 07:23:27;;;;;;;;;4.67;3.33;;;;;;;;5084968;27;45453;-69
2024/03/27 07:25:53;;;;;;;;;5.00;3.33;;;;;;;;5092337;27;45381;-69
2024/03/27 07:28:18;;;;;;;;;4.00;3.00;;;;;;;;5099049;27;45487;-69
2024/03/27 07:30:43;;;;;;;;;3.00;3.00;;;;;;;;5102108;27;45248;-69
2024/03/27 07:33:09;;;;;;;;;4.00;4.00;;;;;;;;5077491;27;45355;-70
2024/03/27 07:35:34;;;;;;;;;4.00;4.00;;;;;;;;5099419;27;45244;-70
2024/03/27 07:37:59;;;;;;;;;4.00;4.00;;;;;;;;5093334;27;46994;-71
2024/03/27 07:40:27;;;;;;;;;4.67;3.00;;;;;;;;5091833;27;45361;-70
2024/03/27 07:42:53;;;;;;;;;2.00;2.00;;;;;;;;5099943;27;45309;-70
2024/03/27 07:45:18;;;;;;;;;4.00;3.67;;;;;;;;5092432;27;45465;-70
2024/03/27 07:47:43;;;;;;;;;3.00;2.33;;;;;;;;5075376;27;46974;-69
2024/03/27 07:50:09;;;;;;;;;4.33;3.00;;;;;;;;5095060;27;45309;-71
2024/03/27 07:52:34;;;;;;;;;6.00;3.33;;;;;;;;5094095;27;45267;-70
2024/03/27 07:54:59;;;;;;;;;4.67;4.67;;;;;;;;5097764;27;45377;-70
2024/03/27 07:57:24;;;;;;;;;4.00;3.00;;;;;;;;5094510;27;45357;-71
2024/03/27 07:59:49;;;;;;;;;3.67;3.67;;;;;;;;5097333;27;45537;-70
2024/03/27 08:02:14;;;;;;;;;3.67;2.00;;;;;;;;5083736;27;45213;-71
2024/03/27 08:04:39;;;;;;;;;7.00;3.00;;;;;;;;5099336;27;45483;-70
2024/03/27 08:07:05;;;;;;;;;8.33;3.00;;;;;;;;5089611;27;45555;-70
2024/03/27 08:09:30;;;;;;;;;3.00;3.00;;;;;;;;5093967;27;45399;-70
2024/03/27 08:11:55;;;;;;;;;3.33;3.33;;;;;;;;5090139;27;45204;-70
2024/03/27 08:14:21;;;;;;;;;4.00;4.00;;;;;;;;5087883;27;46534;-71
2024/03/27 08:16:48;;;;;;;;;2.67;2.67;;;;;;;;5091629;27;48100;-72
2024/03/27 08:19:13;;;;;;;;;4.00;4.00;;;;;;;;5094730;27;45480;-70
2024/03/27 08:21:38;;;;;;;;;1.67;1.67;;;;;;;;5073270;27;45318;-71
2024/03/27 08:24:04;;;;;;;;;2.33;2.33;;;;;;;;5098514;27;45534;-71
2024/03/27 08:26:29;;;;;;;;;3.00;3.00;;;;;;;;5098440;27;45370;-71
2024/03/27 08:28:54;;;;;;;;;3.00;3.00;;;;;;;;5093799;27;45665;-69
2024/03/27 08:31:19;;;;;;;;;3.00;3.00;;;;;;;;5097742;27;45389;-70
2024/03/27 08:33:44;;;;;;;;;3.00;2.00;;;;;;;;5096943;27;45448;-70
2024/03/27 08:36:10;;;;;;;;;2.33;1.00;;;;;;;;5097318;27;46459;-70
2024/03/27 08:38:35;;;;;;;;;2.00;2.00;;;;;;;;5092377;27;45427;-69
2024/03/27 08:41:00;;;;;;;;;2.00;2.00;;;;;;;;5097445;27;45457;-70
2024/03/27 08:43:25;;;;;;;;;2.33;2.33;;;;;;;;5097227;27;45406;-70
2024/03/27 08:45:50;;;;;;;;;2.00;2.00;;;;;;;;5096926;27;46487;-69
2024/03/27 08:48:15;;;;;;;;;4.00;3.00;;;;;;;;5096669;27;45586;-69
2024/03/27 08:50:41;;;;;;;;;3.33;2.00;;;;;;;;5090341;27;45618;-69
2024/03/27 08:53:06;;;;;;;;;2.00;2.00;;;;;;;;5074677;27;45557;-69
2024/03/27 08:55:32;;;;;;;;;1.33;1.33;;;;;;;;5100205;27;45449;-70
2024/03/27 08:57:57;;;;;;;;;2.00;2.00;;;;;;;;5088804;27;45301;-70
2024/03/27 09:00:23;;;;;;;;;3.00;1.67;;;;;;;;5096095;27;45481;-69
2024/03/27 09:02:48;;;;;;;;;2.00;2.00;;;;;;;;5097554;27;45610;-69
2024/03/27 09:05:16;;;;;;;;;2.00;2.00;;;;;;;;5099423;27;45451;-69
2024/03/27 09:07:41;;;;;;;;;3.33;2.00;;;;;;;;5095503;27;45686;-69
2024/03/27 09:10:06;;;;;;;;;2.00;2.00;;;;;;;;5094803;27;45486;-69
2024/03/27 09:12:31;;;;;;;;;2.00;2.00;;;;;;;;5101152;27;45350;-68
2024/03/27 09:14:57;;;;;;;;;1.00;1.00;;;;;;;;5093516;27;46439;-70
2024/03/27 09:17:22;;;;;;;;;2.67;2.67;;;;;;;;5094072;27;45449;-69
2024/03/27 09:19:49;;;;;;;;;2.00;2.00;;;;;;;;5088671;27;44842;-69
2024/03/27 09:22:14;;;;;;;;;2.00;2.00;;;;;;;;5091195;27;45377;-69
2024/03/27 09:24:39;;;;;;;;;1.33;1.00;;;;;;;;5093134;27;45479;-69
2024/03/27 09:27:05;;;;;;;;;3.00;3.00;;;;;;;;5090153;27;45667;-68
2024/03/27 09:29:30;;;;;;;;;2.00;2.00;;;;;;;;5100009;27;45730;-69
2024/03/27 09:31:55;;;;;;;;;6.00;2.33;;;;;;;;5099799;27;45504;-69
2024/03/27 09:34:20;;;;;;;;;0.00;0.00;;;;;;;;5093399;27;45619;-69
2024/03/27 09:36:45;;;;;;;;;4.00;4.00;;;;;;;;5095824;27;45473;-69
2024/03/27 09:39:11;;;;;;;;;2.00;2.00;;;;;;;;5099841;27;45759;-69
2024/03/27 09:41:36;;;;;;;;;2.67;2.67;;;;;;;;5094988;27;45650;-68
2024/03/27 09:44:03;;;;;;;;;2.00;2.00;;;;;;;;5076523;27;46882;-69
2024/03/27 09:46:28;;;;;;;;;2.33;2.00;;;;;;;;5100971;27;45527;-69
2024/03/27 09:48:56;;;;;;;;;2.00;2.00;;;;;;;;5099893;27;45338;-69
2024/03/27 09:51:22;;;;;;;;;4.33;2.33;;;;;;;;5094090;27;45393;-69
2024/03/27 09:53:47;;;;;;;;;1.67;1.00;;;;;;;;5092071;27;45727;-69
2024/03/27 09:56:12;;;;;;;;;1.00;1.00;;;;;;;;5093605;27;45323;-68
2024/03/27 09:58:37;;;;;;;;;2.00;2.00;;;;;;;;5094089;27;45471;-70
2024/03/27 10:01:04;;;;;;;;;2.67;2.67;;;;;;;;5096422;27;46326;-69
2024/03/27 10:03:29;;;;;;;;;2.00;2.00;;;;;;;;5098041;27;46365;-70
2024/03/27 10:05:57;;;;;;;;;3.00;1.33;;;;;;;;5090448;27;45395;-70
2024/03/27 10:08:23;;;;;;;;;3.00;2.00;;;;;;;;5091010;27;45247;-69
2024/03/27 10:10:50;;;;;;;;;3.00;1.67;;;;;;;;5096729;27;45488;-69
2024/03/27 10:13:18;;;;;;;;;3.00;2.33;;;;;;;;5094864;27;45564;-69
2024/03/27 10:15:47;;;;;;;;;1.00;1.00;;;;;;;;5093479;27;45453;-69
2024/03/27 10:18:12;;;;;;;;;1.67;1.67;;;;;;;;5096071;27;45442;-70
2024/03/27 10:20:37;;;;;;;;;3.33;2.00;;;;;;;;5100432;27;45327;-69
2024/03/27 10:23:03;;;;;;;;;2.00;2.00;;;;;;;;5096703;27;45459;-69
2024/03/27 10:25:29;;;;;;;;;3.00;1.33;;;;;;;;5095613;27;45379;-69
2024/03/27 10:27:54;;;;;;;;;2.00;2.00;;;;;;;;5095771;27;45457;-69
2024/03/27 10:30:20;;;;;;;;;1.00;1.00;;;;;;;;5097486;27;45498;-69
2024/03/27 10:32:45;;;;;;;;;2.00;2.00;;;;;;;;5098324;27;45607;-68
2024/03/27 10:35:11;;;;;;;;;4.00;2.00;;;;;;;;5096068;27;45516;-68
2024/03/27 10:37:37;;;;;;;;;2.00;2.00;;;;;;;;5094661;27;45391;-68
2024/03/27 10:40:03;;;;;;;;;3.33;2.00;;;;;;;;5089764;27;45329;-69
2024/03/27 10:42:29;;;;;;;;;2.00;2.00;;;;;;;;5090152;27;45604;-68
2024/03/27 10:44:57;;;;;;;;;2.00;2.00;;;;;;;;5098527;27;45436;-67
2024/03/27 10:47:24;;;;;;;;;2.00;2.00;;;;;;;;5089408;27;45480;-68
2024/03/27 10:49:50;;;;;;;;;1.67;1.67;;;;;;;;5088350;27;45365;-67
2024/03/27 10:52:17;;;;;;;;;3.33;2.00;;;;;;;;5097161;27;46114;-68
2024/03/27 10:54:43;;;;;;;;;1.00;1.00;;;;;;;;5089459;27;45527;-68
2024/03/27 10:57:08;;;;;;;;;4.00;3.00;;;;;;;;5091305;27;45369;-68
2024/03/27 10:59:34;;;;;;;;;2.00;2.00;;;;;;;;5096829;27;46766;-67
2024/03/27 11:02:03;;;;;;;;;3.33;2.00;;;;;;;;5089589;27;46528;-68
2024/03/27 11:04:30;;;;;;;;;3.67;2.00;;;;;;;;5097089;27;45472;-68
2024/03/27 11:06:56;;;;;;;;;2.00;2.00;;;;;;;;5097261;27;45242;-68
2024/03/27 11:09:22;;;;;;;;;1.00;1.00;;;;;;;;5096508;27;45990;-68
2024/03/27 11:11:47;;;;;;;;;2.00;2.00;;;;;;;;5075415;27;47434;-69
2024/03/27 11:14:17;;;;;;;;;2.00;2.00;;;;;;;;5097857;27;45513;-68
2024/03/27 11:16:51;;;;;;;;;3.00;3.00;;;;;;;;5100355;27;45767;-70
2024/03/27 11:19:17;;;;;;;;;4.00;2.67;;;;;;;;5094310;27;45338;-69
2024/03/27 11:21:42;;;;;;;;;2.00;2.00;;;;;;;;5079359;27;46314;-68
2024/03/27 11:24:11;;;;;;;;;1.67;1.67;;;;;;;;5099087;27;45781;-68
2024/03/27 11:26:36;;;;;;;;;2.00;1.33;;;;;;;;5099223;27;45706;-68
2024/03/27 11:29:03;;;;;;;;;3.00;1.00;;;;;;;;5099105;27;45379;-69
2024/03/27 11:31:35;;;;;;;;;1.25;1.25;;;;;;;;5095400;27;46487;-68
2024/03/27 11:34:00;;;;;;;;;2.00;2.00;;;;;;;;5094219;27;45496;-68
2024/03/27 11:36:26;;;;;;;;;1.75;1.75;;;;;;;;5089870;27;45351;-68
2024/03/27 11:38:54;;;;;;;;;1.00;1.00;;;;;;;;5098688;27;45263;-68
2024/03/27 11:41:19;;;;;;;;;1.50;0.50;;;;;;;;5096479;27;45850;-68
2024/03/27 11:43:44;;;;;;;;;0.00;0.00;;;;;;;;5075390;27;45625;-68
2024/03/27 11:46:09;;;;;;;;;1.25;1.00;;;;;;;;5049758;27;46007;-68
2024/03/27 11:48:35;;;;;;;;;0.00;0.00;;;;;;;;5098825;27;45327;-67
2024/03/27 11:51:03;;;;;;;;;0.75;0.75;;;;;;;;5099341;27;46447;-68
2024/03/27 11:53:28;;;;;;;;;0.00;0.00;;;;;;;;5097446;27;45493;-68
2024/03/27 11:55:53;;;;;;;;;1.00;0.67;;;;;;;;5094837;27;45520;-68
2024/03/27 11:58:18;;;;;;;;;0.67;0.00;;;;;;;;5078032;27;45518;-68
2024/03/27 12:00:47;;;;;;;;;1.00;1.00;;;;;;;;5097114;27;45800;-67
2024/03/27 12:03:14;;;;;;;;;0.00;0.00;;;;;;;;5096589;27;45533;-68
2024/03/27 12:05:39;;;;;;;;;0.00;0.00;;;;;;;;5095949;27;45587;-69
2024/03/27 12:08:04;;;;;;;;;0.75;0.75;;;;;;;;5096762;27;45394;-67
2024/03/27 12:10:30;;;;;;;;;1.50;0.50;;;;;;;;5079816;27;45474;-68
2024/03/27 12:12:55;;;;;;;;;0.50;0.50;;;;;;;;5098694;27;45326;-68
2024/03/27 12:15:20;;;;;;;;;0.75;0.75;;;;;;;;5096548;27;45398;-68
2024/03/27 12:17:46;;;;;;;;;0.75;0.75;;;;;;;;5096919;27;45259;-68
2024/03/27 12:20:14;;;;;;;;;1.00;1.00;;;;;;;;5098632;27;45523;-69
2024/03/27 12:22:40;;;;;;;;;0.00;0.00;;;;;;;;5092225;27;45564;-68
2024/03/27 12:25:05;;;;;;;;;0.25;0.00;;;;;;;;5099272;27;45290;-69
2024/03/27 12:27:31;;;;;;;;;0.50;0.50;;;;;;;;5102555;27;45329;-69
2024/03/27 12:29:56;;;;;;;;;1.00;1.00;;;;;;;;5102671;27;45216;-68
2024/03/27 12:32:23;;;;;;;;;0.50;0.50;;;;;;;;5101848;27;45233;-68
2024/03/27 12:34:49;;;;;;;;;0.00;0.00;;;;;;;;5101206;27;45520;-68
2024/03/27 12:37:14;;;;;;;;;0.33;0.33;;;;;;;;5097173;27;45376;-68
2024/03/27 12:39:40;;;;;;;;;0.50;0.50;;;;;;;;5095643;27;46455;-68
2024/03/27 12:42:05;;;;;;;;;0.00;0.00;;;;;;;;5101923;27;45407;-67
2024/03/27 12:44:31;;;;;;;;;0.00;0.00;;;;;;;;5098615;27;45623;-68
2024/03/27 12:46:56;;;;;;;;;0.50;0.00;;;;;;;;5099626;27;45461;-68
2024/03/27 12:49:21;;;;;;;;;0.00;0.00;;;;;;;;5097507;27;46355;-67
2024/03/27 12:51:46;;;;;;;;;0.00;0.00;;;;;;;;5095484;27;45713;-68
2024/03/27 12:54:11;;;;;;;;;1.00;1.00;;;;;;;;5089698;27;45604;-68
2024/03/27 12:56:37;;;;;;;;;0.67;0.67;;;;;;;;5100397;27;45360;-68
2024/03/27 12:59:02;;;;;;;;;1.67;0.33;;;;;;;;5095957;27;45461;-68
2024/03/27 13:01:27;;;;;;;;;0.33;0.33;;;;;;;;5096891;27;45414;-68
2024/03/27 13:03:52;;;;;;;;;2.00;0.33;;;;;;;;5094319;27;45410;-68
2024/03/27 13:06:17;;;;;;;;;0.00;0.00;;;;;;;;5100768;27;45460;-68
2024/03/27 13:08:42;;;;;;;;;3.00;0.67;;;;;;;;5101020;27;45891;-68
2024/03/27 13:11:08;;;;;;;;;0.67;0.00;;;;;;;;5096597;27;45705;-68
2024/03/27 13:13:33;;;;;;;;;0.33;0.00;;;;;;;;5099044;27;45350;-68
2024/03/27 13:15:58;;;;;;;;;0.00;0.00;;;;;;;;5095664;27;45407;-68
2024/03/27 13:18:23;;;;;;;;;0.00;0.00;;;;;;;;5099580;27;45441;-69
2024/03/27 13:20:48;;;;;;;;;0.00;0.00;;;;;;;;5082608;27;45975;-69
2024/03/27 13:23:13;;;;;;;;;1.33;0.33;;;;;;;;5100653;27;45390;-68
2024/03/27 13:25:39;;;;;;;;;0.00;0.00;;;;;;;;5100367;27;45290;-69
2024/03/27 13:28:05;;;;;;;;;0.00;0.00;;;;;;;;5082383;27;46958;-68
2024/03/27 13:30:30;;;;;;;;;0.00;0.00;;;;;;;;5101683;27;45541;-69
2024/03/27 13:32:55;;;;;;;;;0.00;0.00;;;;;;;;5087839;27;45609;-69
2024/03/27 13:35:20;;;;;;;;;0.00;0.00;;;;;;;;5090976;27;45641;-69
2024/03/27 13:37:47;;;;;;;;;1.67;0.00;;;;;;;;5082453;27;46195;-67
2024/03/27 13:40:12;;;;;;;;;0.00;0.00;;;;;;;;5081631;27;45367;-67
2024/03/27 13:42:37;;;;;;;;;0.00;0.00;;;;;;;;5087381;27;45296;-68
2024/03/27 13:45:02;;;;;;;;;0.67;0.00;;;;;;;;5081742;27;45418;-68
2024/03/27 13:47:27;;;;;;;;;0.00;0.00;;;;;;;;5086303;27;46139;-68
2024/03/27 13:49:53;;;;;;;;;0.00;0.00;;;;;;;;5097060;27;46440;-68
2024/03/27 13:52:18;;;;;;;;;0.33;0.00;;;;;;;;5097193;27;45310;-68
2024/03/27 13:54:44;;;;;;;;;0.00;0.00;;;;;;;;5092106;27;45395;-68
2024/03/27 13:57:09;;;;;;;;;0.00;0.00;;;;;;;;5085905;27;46168;-67
2024/03/27 13:59:34;;;;;;;;;0.33;0.00;;;;;;;;5064020;28;45419;-70
2024/03/27 14:02:00;;;;;;;;;0.00;0.00;;;;;;;;5096352;27;45603;-68
2024/03/27 14:04:25;;;;;;;;;0.00;0.00;;;;;;;;5091543;27;45322;-69
2024/03/27 14:06:50;;;;;;;;;0.33;0.00;;;;;;;;5101084;27;46086;-68
2024/03/27 14:09:15;;;;;;;;;0.00;0.00;;;;;;;;5100386;27;45271;-69
2024/03/27 14:11:40;;;;;;;;;0.00;0.00;;;;;;;;5100633;27;45572;-69
2024/03/27 14:14:06;;;;;;;;;0.00;0.00;;;;;;;;5096864;27;45473;-68
2024/03/27 14:16:31;;;;;;;;;1.33;0.00;;;;;;;;5102060;27;46540;-69
2024/03/27 14:18:57;;;;;;;;;0.00;0.00;;;;;;;;5100185;27;45480;-68
2024/03/27 14:21:22;;;;;;;;;0.00;0.00;;;;;;;;5097959;27;45339;-69
2024/03/27 14:23:47;;;;;;;;;0.00;0.00;;;;;;;;5097775;27;45493;-69
2024/03/27 14:26:12;;;;;;;;;0.00;0.00;;;;;;;;5076493;27;47932;-68
2024/03/27 14:28:37;;;;;;;;;0.00;0.00;;;;;;;;5100356;27;45407;-68
2024/03/27 14:31:03;;;;;;;;;0.67;0.00;;;;;;;;5079090;27;45410;-68
2024/03/27 14:33:28;;;;;;;;;0.00;0.00;;;;;;;;5093248;27;45528;-68